createdAt,value
2023-04-10T00:09:29.788Z,12.38
2023-04-10T00:24:31.357Z,13.50
2023-04-10T00:39:32.947Z,13.68
2023-04-10T00:54:36.328Z,13.75
2023-04-10T01:09:39.698Z,13.70
2023-04-10T01:24:41.355Z,12.88
2023-04-10T01:39:43.056Z,11.10
2023-04-10T01:54:45.960Z,11.70
2023-04-10T02:09:51.626Z,13.18
2023-04-10T02:24:53.998Z,11.45
2023-04-10T02:39:55.743Z,12.10
2023-04-10T02:54:59.916Z,12.18
2023-04-10T03:10:09.795Z,12.63
2023-04-10T03:25:11.829Z,13.82
2023-04-10T03:40:13.559Z,13.18
2023-04-10T03:55:19.266Z,15.35
2023-04-10T04:10:22.023Z,13.23
2023-04-10T04:25:32.840Z,12.85
2023-04-10T04:40:59.098Z,12.38
2023-04-10T04:56:33.267Z,11.32
2023-04-10T05:11:51.538Z,12.77
2023-04-10T05:27:15.876Z,11.77
2023-04-10T05:42:37.783Z,10.75
2023-04-10T05:57:57.857Z,9.73
2023-04-10T06:13:11.238Z,11.30
2023-04-10T06:28:13.395Z,11.43
2023-04-10T06:43:17.623Z,9.95
2023-04-10T06:58:19.301Z,8.93
2023-04-10T07:13:21.116Z,9.45
2023-04-10T07:28:22.707Z,7.60
2023-04-10T07:58:25.838Z,6.20
2023-04-10T08:13:27.515Z,5.60
2023-04-10T08:28:29.165Z,6.50
2023-04-10T08:43:34.856Z,5.43
2023-04-10T08:58:36.767Z,4.75
2023-04-10T09:13:38.416Z,5.00
2023-04-10T09:28:40.114Z,5.03
2023-04-10T09:43:43.683Z,5.85
2023-04-10T09:58:45.305Z,4.53
2023-04-10T10:13:46.890Z,4.65
2023-04-10T10:28:48.491Z,4.38
2023-04-10T10:43:51.119Z,4.00
2023-04-10T10:58:53.148Z,3.78
2023-04-10T11:13:58.119Z,2.63
2023-04-10T11:28:59.723Z,3.10
2023-04-10T11:44:01.800Z,2.80
2023-04-10T11:59:07.612Z,2.90
2023-04-10T12:14:09.510Z,3.83
2023-04-10T12:29:11.438Z,3.25
2023-04-10T12:44:13.260Z,2.40
2023-04-10T12:59:14.911Z,2.30
2023-04-10T13:14:17.192Z,2.35
2023-04-10T13:29:18.785Z,2.25
2023-04-10T13:44:20.589Z,2.38
2023-04-10T13:59:22.315Z,4.55
2023-04-10T14:14:26.914Z,2.58
2023-04-10T14:29:37.320Z,2.47
2023-04-10T14:44:42.301Z,2.60
2023-04-10T14:59:44.298Z,2.00
2023-04-10T15:14:45.937Z,3.05
2023-04-10T15:29:47.541Z,2.05
2023-04-10T15:44:49.367Z,2.15
2023-04-10T15:59:51.067Z,1.90
2023-04-10T16:14:52.700Z,2.05
2023-04-10T16:29:54.313Z,1.92
2023-04-10T16:44:56.029Z,2.42
2023-04-10T17:00:00.972Z,2.08
2023-04-10T17:15:02.728Z,1.90
2023-04-10T17:30:04.346Z,2.33
2023-04-10T17:45:05.959Z,2.45
2023-04-10T18:00:07.568Z,2.20
2023-04-10T18:15:09.674Z,2.38
2023-04-10T18:30:11.315Z,2.55
2023-04-10T18:45:13.271Z,2.25
2023-04-10T19:00:14.908Z,3.88
2023-04-10T19:15:16.530Z,2.67
2023-04-10T19:30:18.214Z,3.00
2023-04-10T19:45:20.443Z,2.90
2023-04-10T20:00:22.214Z,2.95
2023-04-10T20:15:23.816Z,2.90
2023-04-10T20:30:25.671Z,2.38
2023-04-10T20:45:27.265Z,2.28
2023-04-10T21:00:31.101Z,2.13
2023-04-10T21:15:32.710Z,2.20
2023-04-10T21:30:34.328Z,2.88
2023-04-10T21:45:37.523Z,2.67
2023-04-10T22:00:39.215Z,2.15
2023-04-10T22:15:41.018Z,2.50
2023-04-10T22:30:42.632Z,3.72
2023-04-10T22:45:44.299Z,2.42
2023-04-10T23:00:45.889Z,2.40
2023-04-10T23:15:47.532Z,2.58
2023-04-10T23:30:49.186Z,2.55
2023-04-10T23:45:50.826Z,2.33
